sensor_id;sensor_type;location;lat;lon;timestamp;P1;durP1;ratioP1;P2;durP2;ratioP2
17991;SDS011;9121;50.926;5.340;2023-04-29T00:00:12;65.47;;;32.60;;
17991;SDS011;9121;50.926;5.340;2023-04-29T00:02:40;64.63;;;32.13;;
17991;SDS011;9121;50.926;5.340;2023-04-29T00:05:08;69.33;;;32.33;;
17991;SDS011;9121;50.926;5.340;2023-04-29T00:07:35;69.17;;;32.23;;
17991;SDS011;9121;50.926;5.340;2023-04-29T00:10:03;66.30;;;29.33;;
17991;SDS011;9121;50.926;5.340;2023-04-29T00:12:30;66.72;;;30.85;;
17991;SDS011;9121;50.926;5.340;2023-04-29T00:14:57;60.87;;;29.57;;
17991;SDS011;9121;50.926;5.340;2023-04-29T00:17:24;70.93;;;31.37;;
17991;SDS011;9121;50.926;5.340;2023-04-29T00:19:51;67.53;;;31.77;;
17991;SDS011;9121;50.926;5.340;2023-04-29T00:22:20;67.50;;;30.40;;
17991;SDS011;9121;50.926;5.340;2023-04-29T00:24:47;65.97;;;29.17;;
17991;SDS011;9121;50.926;5.340;2023-04-29T00:27:14;68.05;;;31.10;;
17991;SDS011;9121;50.926;5.340;2023-04-29T00:29:42;68.90;;;30.43;;
17991;SDS011;9121;50.926;5.340;2023-04-29T00:32:09;67.33;;;32.37;;
17991;SDS011;9121;50.926;5.340;2023-04-29T00:34:36;63.70;;;30.55;;
17991;SDS011;9121;50.926;5.340;2023-04-29T00:37:03;62.57;;;29.87;;
17991;SDS011;9121;50.926;5.340;2023-04-29T00:39:31;59.23;;;28.67;;
17991;SDS011;9121;50.926;5.340;2023-04-29T00:41:58;65.57;;;29.87;;
17991;SDS011;9121;50.926;5.340;2023-04-29T00:44:27;57.35;;;28.80;;
17991;SDS011;9121;50.926;5.340;2023-04-29T00:46:54;57.93;;;28.33;;
17991;SDS011;9121;50.926;5.340;2023-04-29T00:49:21;54.53;;;27.53;;
17991;SDS011;9121;50.926;5.340;2023-04-29T00:51:48;55.83;;;27.40;;
17991;SDS011;9121;50.926;5.340;2023-04-29T00:54:15;52.03;;;26.53;;
17991;SDS011;9121;50.926;5.340;2023-04-29T00:56:45;53.57;;;26.63;;
17991;SDS011;9121;50.926;5.340;2023-04-29T00:59:12;56.53;;;26.10;;
17991;SDS011;9121;50.926;5.340;2023-04-29T01:01:41;53.10;;;24.70;;
17991;SDS011;9121;50.926;5.340;2023-04-29T01:04:08;57.43;;;27.03;;
17991;SDS011;9121;50.926;5.340;2023-04-29T01:09:37;55.60;;;26.03;;
17991;SDS011;9121;50.926;5.340;2023-04-29T01:12:19;53.50;;;26.70;;
17991;SDS011;9121;50.926;5.340;2023-04-29T01:14:53;51.67;;;26.40;;
17991;SDS011;9121;50.926;5.340;2023-04-29T01:17:27;58.90;;;26.97;;
17991;SDS011;9121;50.926;5.340;2023-04-29T01:20:01;56.83;;;27.10;;
17991;SDS011;9121;50.926;5.340;2023-04-29T01:22:29;60.43;;;27.60;;
17991;SDS011;9121;50.926;5.340;2023-04-29T01:24:58;62.00;;;27.80;;
17991;SDS011;9121;50.926;5.340;2023-04-29T01:27:27;56.53;;;26.83;;
17991;SDS011;9121;50.926;5.340;2023-04-29T01:29:58;61.43;;;26.67;;
17991;SDS011;9121;50.926;5.340;2023-04-29T01:32:36;55.37;;;26.80;;
17991;SDS011;9121;50.926;5.340;2023-04-29T01:35:17;51.00;;;26.30;;
17991;SDS011;9121;50.926;5.340;2023-04-29T01:37:53;58.13;;;27.43;;
17991;SDS011;9121;50.926;5.340;2023-04-29T01:40:29;64.83;;;26.43;;
17991;SDS011;9121;50.926;5.340;2023-04-29T01:43:03;57.90;;;25.77;;
17991;SDS011;9121;50.926;5.340;2023-04-29T01:45:33;61.00;;;27.03;;
17991;SDS011;9121;50.926;5.340;2023-04-29T01:48:05;59.13;;;26.37;;
17991;SDS011;9121;50.926;5.340;2023-04-29T01:50:32;56.40;;;26.57;;
17991;SDS011;9121;50.926;5.340;2023-04-29T01:52:59;64.90;;;28.57;;
17991;SDS011;9121;50.926;5.340;2023-04-29T01:55:28;59.37;;;27.80;;
17991;SDS011;9121;50.926;5.340;2023-04-29T01:57:55;57.50;;;27.13;;
17991;SDS011;9121;50.926;5.340;2023-04-29T02:00:22;61.90;;;28.30;;
17991;SDS011;9121;50.926;5.340;2023-04-29T02:02:49;59.13;;;27.70;;
17991;SDS011;9121;50.926;5.340;2023-04-29T02:05:16;58.50;;;27.80;;
17991;SDS011;9121;50.926;5.340;2023-04-29T02:07:43;60.67;;;27.97;;
17991;SDS011;9121;50.926;5.340;2023-04-29T02:10:09;58.27;;;27.00;;
17991;SDS011;9121;50.926;5.340;2023-04-29T02:12:38;67.00;;;28.83;;
17991;SDS011;9121;50.926;5.340;2023-04-29T02:15:06;63.97;;;28.47;;
17991;SDS011;9121;50.926;5.340;2023-04-29T02:17:33;61.00;;;27.77;;
17991;SDS011;9121;50.926;5.340;2023-04-29T02:20:00;62.50;;;27.63;;
17991;SDS011;9121;50.926;5.340;2023-04-29T02:22:27;54.93;;;26.47;;
17991;SDS011;9121;50.926;5.340;2023-04-29T02:24:54;55.37;;;26.17;;
17991;SDS011;9121;50.926;5.340;2023-04-29T02:27:22;57.03;;;28.40;;
17991;SDS011;9121;50.926;5.340;2023-04-29T02:29:51;67.03;;;29.00;;
17991;SDS011;9121;50.926;5.340;2023-04-29T02:32:18;62.10;;;28.10;;
17991;SDS011;9121;50.926;5.340;2023-04-29T02:34:45;66.57;;;27.97;;
17991;SDS011;9121;50.926;5.340;2023-04-29T02:37:13;66.80;;;30.13;;
17991;SDS011;9121;50.926;5.340;2023-04-29T02:39:40;69.87;;;28.90;;
17991;SDS011;9121;50.926;5.340;2023-04-29T02:42:07;65.83;;;29.73;;
17991;SDS011;9121;50.926;5.340;2023-04-29T02:44:34;71.27;;;32.10;;
17991;SDS011;9121;50.926;5.340;2023-04-29T02:47:03;62.73;;;30.60;;
17991;SDS011;9121;50.926;5.340;2023-04-29T02:49:29;68.73;;;30.57;;
17991;SDS011;9121;50.926;5.340;2023-04-29T02:51:56;68.67;;;31.40;;
17991;SDS011;9121;50.926;5.340;2023-04-29T02:54:23;72.37;;;31.30;;
17991;SDS011;9121;50.926;5.340;2023-04-29T02:56:50;82.90;;;35.80;;
17991;SDS011;9121;50.926;5.340;2023-04-29T02:59:17;85.83;;;37.00;;
17991;SDS011;9121;50.926;5.340;2023-04-29T03:01:44;75.27;;;35.10;;
17991;SDS011;9121;50.926;5.340;2023-04-29T03:04:13;82.30;;;38.57;;
17991;SDS011;9121;50.926;5.340;2023-04-29T03:06:40;89.20;;;39.87;;
17991;SDS011;9121;50.926;5.340;2023-04-29T03:09:07;96.17;;;41.03;;
17991;SDS011;9121;50.926;5.340;2023-04-29T03:11:34;88.53;;;42.77;;
17991;SDS011;9121;50.926;5.340;2023-04-29T03:14:01;95.93;;;42.20;;
17991;SDS011;9121;50.926;5.340;2023-04-29T03:16:28;94.97;;;42.20;;
17991;SDS011;9121;50.926;5.340;2023-04-29T03:18:55;93.57;;;42.73;;
17991;SDS011;9121;50.926;5.340;2023-04-29T03:21:24;101.50;;;44.87;;
17991;SDS011;9121;50.926;5.340;2023-04-29T03:23:51;93.23;;;44.07;;
17991;SDS011;9121;50.926;5.340;2023-04-29T03:26:18;97.67;;;45.23;;
17991;SDS011;9121;50.926;5.340;2023-04-29T03:28:46;102.30;;;45.60;;
17991;SDS011;9121;50.926;5.340;2023-04-29T03:31:13;92.00;;;44.00;;
17991;SDS011;9121;50.926;5.340;2023-04-29T03:33:41;98.97;;;46.53;;
17991;SDS011;9121;50.926;5.340;2023-04-29T03:36:08;96.30;;;44.60;;
17991;SDS011;9121;50.926;5.340;2023-04-29T03:38:36;95.40;;;43.63;;
17991;SDS011;9121;50.926;5.340;2023-04-29T03:41:03;92.43;;;45.50;;
17991;SDS011;9121;50.926;5.340;2023-04-29T03:43:31;91.43;;;43.60;;
17991;SDS011;9121;50.926;5.340;2023-04-29T03:45:58;94.77;;;43.57;;
17991;SDS011;9121;50.926;5.340;2023-04-29T03:48:25;90.60;;;43.33;;
17991;SDS011;9121;50.926;5.340;2023-04-29T03:50:52;85.47;;;42.07;;
17991;SDS011;9121;50.926;5.340;2023-04-29T03:53:19;79.80;;;40.93;;
17991;SDS011;9121;50.926;5.340;2023-04-29T03:55:47;93.00;;;41.50;;
17991;SDS011;9121;50.926;5.340;2023-04-29T03:58:14;86.03;;;41.43;;
17991;SDS011;9121;50.926;5.340;2023-04-29T04:00:41;86.67;;;41.67;;
17991;SDS011;9121;50.926;5.340;2023-04-29T04:03:08;93.33;;;43.13;;
17991;SDS011;9121;50.926;5.340;2023-04-29T04:05:35;81.90;;;40.03;;
17991;SDS011;9121;50.926;5.340;2023-04-29T04:08:02;81.80;;;39.43;;
17991;SDS011;9121;50.926;5.340;2023-04-29T04:10:29;79.93;;;36.87;;
17991;SDS011;9121;50.926;5.340;2023-04-29T04:12:57;84.73;;;37.73;;
17991;SDS011;9121;50.926;5.340;2023-04-29T04:15:24;80.67;;;36.70;;
17991;SDS011;9121;50.926;5.340;2023-04-29T04:17:51;75.73;;;36.60;;
17991;SDS011;9121;50.926;5.340;2023-04-29T04:20:18;78.20;;;36.53;;
17991;SDS011;9121;50.926;5.340;2023-04-29T04:22:45;68.23;;;33.37;;
17991;SDS011;9121;50.926;5.340;2023-04-29T04:25:12;67.60;;;32.30;;
17991;SDS011;9121;50.926;5.340;2023-04-29T04:27:38;68.20;;;30.70;;
17991;SDS011;9121;50.926;5.340;2023-04-29T04:30:08;76.70;;;34.03;;
17991;SDS011;9121;50.926;5.340;2023-04-29T04:32:35;66.13;;;29.97;;
17991;SDS011;9121;50.926;5.340;2023-04-29T04:35:03;73.70;;;32.67;;
17991;SDS011;9121;50.926;5.340;2023-04-29T04:37:32;72.73;;;33.87;;
17991;SDS011;9121;50.926;5.340;2023-04-29T04:39:59;70.47;;;33.40;;
17991;SDS011;9121;50.926;5.340;2023-04-29T04:42:26;74.00;;;31.93;;
17991;SDS011;9121;50.926;5.340;2023-04-29T04:44:53;71.30;;;35.10;;
17991;SDS011;9121;50.926;5.340;2023-04-29T04:47:21;66.70;;;32.57;;
17991;SDS011;9121;50.926;5.340;2023-04-29T04:49:48;75.43;;;33.87;;
17991;SDS011;9121;50.926;5.340;2023-04-29T04:52:18;71.80;;;33.60;;
17991;SDS011;9121;50.926;5.340;2023-04-29T04:54:46;74.90;;;34.43;;
17991;SDS011;9121;50.926;5.340;2023-04-29T04:57:13;69.60;;;32.27;;
17991;SDS011;9121;50.926;5.340;2023-04-29T04:59:40;75.93;;;33.97;;
17991;SDS011;9121;50.926;5.340;2023-04-29T05:02:07;73.67;;;34.93;;
17991;SDS011;9121;50.926;5.340;2023-04-29T05:04:36;76.17;;;34.27;;
17991;SDS011;9121;50.926;5.340;2023-04-29T05:07:02;71.53;;;34.77;;
17991;SDS011;9121;50.926;5.340;2023-04-29T05:09:29;75.93;;;35.90;;
17991;SDS011;9121;50.926;5.340;2023-04-29T05:11:57;82.57;;;33.93;;
17991;SDS011;9121;50.926;5.340;2023-04-29T05:14:24;78.40;;;36.00;;
17991;SDS011;9121;50.926;5.340;2023-04-29T05:16:52;77.60;;;35.17;;
17991;SDS011;9121;50.926;5.340;2023-04-29T05:19:18;77.73;;;35.57;;
17991;SDS011;9121;50.926;5.340;2023-04-29T05:21:47;85.77;;;36.00;;
17991;SDS011;9121;50.926;5.340;2023-04-29T05:24:14;71.90;;;35.70;;
17991;SDS011;9121;50.926;5.340;2023-04-29T05:26:41;83.70;;;36.40;;
17991;SDS011;9121;50.926;5.340;2023-04-29T05:29:08;88.27;;;37.57;;
17991;SDS011;9121;50.926;5.340;2023-04-29T05:31:35;79.70;;;36.77;;
17991;SDS011;9121;50.926;5.340;2023-04-29T05:34:02;84.87;;;37.67;;
17991;SDS011;9121;50.926;5.340;2023-04-29T05:36:30;78.87;;;36.07;;
17991;SDS011;9121;50.926;5.340;2023-04-29T05:38:58;82.87;;;37.10;;
17991;SDS011;9121;50.926;5.340;2023-04-29T05:41:25;59.23;;;29.03;;
17991;SDS011;9121;50.926;5.340;2023-04-29T05:43:52;65.97;;;30.03;;
17991;SDS011;9121;50.926;5.340;2023-04-29T05:46:19;58.87;;;27.80;;
17991;SDS011;9121;50.926;5.340;2023-04-29T05:48:47;52.50;;;26.87;;
17991;SDS011;9121;50.926;5.340;2023-04-29T05:51:14;52.53;;;26.53;;
17991;SDS011;9121;50.926;5.340;2023-04-29T05:53:41;53.20;;;26.80;;
17991;SDS011;9121;50.926;5.340;2023-04-29T05:56:09;47.23;;;24.80;;
17991;SDS011;9121;50.926;5.340;2023-04-29T05:58:36;48.20;;;24.70;;
17991;SDS011;9121;50.926;5.340;2023-04-29T06:01:03;53.90;;;25.20;;
17991;SDS011;9121;50.926;5.340;2023-04-29T06:03:30;47.67;;;25.97;;
17991;SDS011;9121;50.926;5.340;2023-04-29T06:05:56;52.87;;;26.60;;
17991;SDS011;9121;50.926;5.340;2023-04-29T06:08:24;49.77;;;26.70;;
17991;SDS011;9121;50.926;5.340;2023-04-29T06:10:51;52.00;;;26.33;;
17991;SDS011;9121;50.926;5.340;2023-04-29T06:13:19;53.67;;;26.33;;
17991;SDS011;9121;50.926;5.340;2023-04-29T06:15:46;52.63;;;26.63;;
17991;SDS011;9121;50.926;5.340;2023-04-29T06:18:14;51.70;;;25.13;;
17991;SDS011;9121;50.926;5.340;2023-04-29T06:20:41;47.97;;;25.63;;
17991;SDS011;9121;50.926;5.340;2023-04-29T06:23:08;55.37;;;25.13;;
17991;SDS011;9121;50.926;5.340;2023-04-29T06:25:35;42.80;;;23.83;;
17991;SDS011;9121;50.926;5.340;2023-04-29T06:28:02;52.87;;;24.60;;
17991;SDS011;9121;50.926;5.340;2023-04-29T06:30:30;46.87;;;24.33;;
17991;SDS011;9121;50.926;5.340;2023-04-29T06:32:57;48.00;;;24.27;;
17991;SDS011;9121;50.926;5.340;2023-04-29T06:35:24;45.27;;;22.53;;
17991;SDS011;9121;50.926;5.340;2023-04-29T06:37:51;51.33;;;24.43;;
17991;SDS011;9121;50.926;5.340;2023-04-29T06:40:20;49.73;;;23.47;;
17991;SDS011;9121;50.926;5.340;2023-04-29T06:42:47;46.37;;;22.90;;
17991;SDS011;9121;50.926;5.340;2023-04-29T06:45:15;53.97;;;23.37;;
17991;SDS011;9121;50.926;5.340;2023-04-29T06:47:44;49.43;;;23.60;;
17991;SDS011;9121;50.926;5.340;2023-04-29T06:50:11;51.90;;;24.50;;
17991;SDS011;9121;50.926;5.340;2023-04-29T06:52:38;49.77;;;25.37;;
17991;SDS011;9121;50.926;5.340;2023-04-29T06:55:05;48.90;;;24.23;;
17991;SDS011;9121;50.926;5.340;2023-04-29T06:57:32;50.33;;;23.30;;
17991;SDS011;9121;50.926;5.340;2023-04-29T07:00:00;48.10;;;24.47;;
17991;SDS011;9121;50.926;5.340;2023-04-29T07:02:28;51.77;;;24.60;;
17991;SDS011;9121;50.926;5.340;2023-04-29T07:04:56;53.07;;;25.80;;
17991;SDS011;9121;50.926;5.340;2023-04-29T07:07:24;48.20;;;25.03;;
17991;SDS011;9121;50.926;5.340;2023-04-29T07:09:51;59.20;;;26.53;;
17991;SDS011;9121;50.926;5.340;2023-04-29T07:12:18;54.43;;;25.97;;
17991;SDS011;9121;50.926;5.340;2023-04-29T07:14:45;50.07;;;27.13;;
17991;SDS011;9121;50.926;5.340;2023-04-29T07:17:12;52.27;;;27.17;;
17991;SDS011;9121;50.926;5.340;2023-04-29T07:19:39;51.63;;;27.03;;
17991;SDS011;9121;50.926;5.340;2023-04-29T07:22:07;55.83;;;27.03;;
17991;SDS011;9121;50.926;5.340;2023-04-29T07:24:34;53.60;;;26.57;;
17991;SDS011;9121;50.926;5.340;2023-04-29T07:27:01;59.67;;;27.17;;
17991;SDS011;9121;50.926;5.340;2023-04-29T07:29:28;51.90;;;26.67;;
17991;SDS011;9121;50.926;5.340;2023-04-29T07:31:55;57.70;;;27.70;;
17991;SDS011;9121;50.926;5.340;2023-04-29T07:34:22;55.73;;;26.10;;
17991;SDS011;9121;50.926;5.340;2023-04-29T07:36:50;43.87;;;24.70;;
17991;SDS011;9121;50.926;5.340;2023-04-29T07:39:18;50.90;;;24.20;;
17991;SDS011;9121;50.926;5.340;2023-04-29T07:41:45;54.10;;;25.10;;
17991;SDS011;9121;50.926;5.340;2023-04-29T07:44:12;44.30;;;22.77;;
17991;SDS011;9121;50.926;5.340;2023-04-29T07:46:39;45.90;;;22.27;;
17991;SDS011;9121;50.926;5.340;2023-04-29T07:49:06;40.70;;;21.53;;
17991;SDS011;9121;50.926;5.340;2023-04-29T07:51:32;47.47;;;21.00;;
17991;SDS011;9121;50.926;5.340;2023-04-29T07:54:00;41.33;;;20.03;;
17991;SDS011;9121;50.926;5.340;2023-04-29T07:56:28;44.37;;;22.10;;
17991;SDS011;9121;50.926;5.340;2023-04-29T07:58:56;40.63;;;18.90;;
17991;SDS011;9121;50.926;5.340;2023-04-29T08:01:24;43.40;;;20.50;;
17991;SDS011;9121;50.926;5.340;2023-04-29T08:03:52;34.47;;;19.13;;
17991;SDS011;9121;50.926;5.340;2023-04-29T08:06:19;42.03;;;19.57;;
17991;SDS011;9121;50.926;5.340;2023-04-29T08:08:46;42.10;;;18.00;;
17991;SDS011;9121;50.926;5.340;2023-04-29T08:11:16;34.80;;;18.03;;
17991;SDS011;9121;50.926;5.340;2023-04-29T08:13:45;35.60;;;19.07;;
17991;SDS011;9121;50.926;5.340;2023-04-29T08:16:12;41.77;;;19.07;;
17991;SDS011;9121;50.926;5.340;2023-04-29T08:18:39;38.13;;;19.23;;
17991;SDS011;9121;50.926;5.340;2023-04-29T08:21:06;35.90;;;18.00;;
17991;SDS011;9121;50.926;5.340;2023-04-29T08:23:35;36.03;;;18.50;;
17991;SDS011;9121;50.926;5.340;2023-04-29T08:26:02;38.57;;;18.77;;
17991;SDS011;9121;50.926;5.340;2023-04-29T08:28:29;41.03;;;18.10;;
17991;SDS011;9121;50.926;5.340;2023-04-29T08:30:57;37.00;;;18.60;;
17991;SDS011;9121;50.926;5.340;2023-04-29T08:33:24;38.10;;;17.95;;
17991;SDS011;9121;50.926;5.340;2023-04-29T08:35:56;39.67;;;18.90;;
17991;SDS011;9121;50.926;5.340;2023-04-29T08:38:24;38.93;;;19.43;;
17991;SDS011;9121;50.926;5.340;2023-04-29T08:40:52;32.90;;;17.80;;
17991;SDS011;9121;50.926;5.340;2023-04-29T08:43:19;34.70;;;19.23;;
17991;SDS011;9121;50.926;5.340;2023-04-29T08:45:46;37.03;;;20.40;;
17991;SDS011;9121;50.926;5.340;2023-04-29T08:48:16;32.35;;;19.58;;
17991;SDS011;9121;50.926;5.340;2023-04-29T08:50:43;36.03;;;20.35;;
17991;SDS011;9121;50.926;5.340;2023-04-29T08:53:11;35.20;;;19.27;;
17991;SDS011;9121;50.926;5.340;2023-04-29T08:55:40;37.70;;;20.25;;
17991;SDS011;9121;50.926;5.340;2023-04-29T08:58:08;41.67;;;20.70;;
17991;SDS011;9121;50.926;5.340;2023-04-29T09:00:36;34.73;;;20.13;;
17991;SDS011;9121;50.926;5.340;2023-04-29T09:03:13;38.70;;;21.07;;
17991;SDS011;9121;50.926;5.340;2023-04-29T09:05:48;37.53;;;20.27;;
17991;SDS011;9121;50.926;5.340;2023-04-29T09:08:17;39.77;;;21.13;;
17991;SDS011;9121;50.926;5.340;2023-04-29T09:10:45;33.58;;;19.65;;
17991;SDS011;9121;50.926;5.340;2023-04-29T09:13:21;35.47;;;20.35;;
17991;SDS011;9121;50.926;5.340;2023-04-29T09:15:49;36.60;;;19.70;;
17991;SDS011;9121;50.926;5.340;2023-04-29T09:21:11;35.75;;;20.80;;
17991;SDS011;9121;50.926;5.340;2023-04-29T09:23:39;38.10;;;20.85;;
17991;SDS011;9121;50.926;5.340;2023-04-29T09:26:06;34.55;;;19.85;;
17991;SDS011;9121;50.926;5.340;2023-04-29T09:28:33;32.25;;;19.25;;
17991;SDS011;9121;50.926;5.340;2023-04-29T09:31:00;29.67;;;17.98;;
17991;SDS011;9121;50.926;5.340;2023-04-29T09:33:30;33.08;;;18.27;;
17991;SDS011;9121;50.926;5.340;2023-04-29T09:35:58;32.70;;;18.23;;
17991;SDS011;9121;50.926;5.340;2023-04-29T09:38:25;36.13;;;20.42;;
17991;SDS011;9121;50.926;5.340;2023-04-29T09:40:52;32.92;;;18.92;;
17991;SDS011;9121;50.926;5.340;2023-04-29T09:43:20;33.10;;;17.15;;
17991;SDS011;9121;50.926;5.340;2023-04-29T09:45:47;27.65;;;15.95;;
17991;SDS011;9121;50.926;5.340;2023-04-29T09:48:15;28.23;;;16.88;;
17991;SDS011;9121;50.926;5.340;2023-04-29T09:50:43;26.10;;;15.93;;
17991;SDS011;9121;50.926;5.340;2023-04-29T09:53:28;27.27;;;15.57;;
17991;SDS011;9121;50.926;5.340;2023-04-29T09:55:59;24.20;;;14.75;;
17991;SDS011;9121;50.926;5.340;2023-04-29T09:58:27;24.85;;;14.45;;
17991;SDS011;9121;50.926;5.340;2023-04-29T10:00:58;30.05;;;15.80;;
17991;SDS011;9121;50.926;5.340;2023-04-29T10:03:26;27.85;;;16.45;;
17991;SDS011;9121;50.926;5.340;2023-04-29T10:05:58;27.92;;;16.90;;
17991;SDS011;9121;50.926;5.340;2023-04-29T10:08:29;26.88;;;16.48;;
17991;SDS011;9121;50.926;5.340;2023-04-29T10:10:58;29.48;;;17.10;;
17991;SDS011;9121;50.926;5.340;2023-04-29T10:13:26;28.15;;;16.90;;
17991;SDS011;9121;50.926;5.340;2023-04-29T10:15:57;27.02;;;16.88;;
17991;SDS011;9121;50.926;5.340;2023-04-29T10:18:29;29.35;;;15.55;;
17991;SDS011;9121;50.926;5.340;2023-04-29T10:21:01;25.13;;;13.98;;
17991;SDS011;9121;50.926;5.340;2023-04-29T10:23:30;21.65;;;13.32;;
17991;SDS011;9121;50.926;5.340;2023-04-29T10:25:59;25.48;;;12.57;;
17991;SDS011;9121;50.926;5.340;2023-04-29T10:28:29;21.75;;;12.90;;
17991;SDS011;9121;50.926;5.340;2023-04-29T10:30:58;24.20;;;13.15;;
17991;SDS011;9121;50.926;5.340;2023-04-29T10:33:28;25.23;;;13.38;;
17991;SDS011;9121;50.926;5.340;2023-04-29T10:35:57;24.73;;;13.23;;
17991;SDS011;9121;50.926;5.340;2023-04-29T10:38:33;22.77;;;12.75;;
17991;SDS011;9121;50.926;5.340;2023-04-29T10:41:06;28.88;;;14.10;;
17991;SDS011;9121;50.926;5.340;2023-04-29T10:43:38;25.00;;;14.10;;
17991;SDS011;9121;50.926;5.340;2023-04-29T10:46:19;21.60;;;13.32;;
17991;SDS011;9121;50.926;5.340;2023-04-29T10:48:48;23.40;;;14.55;;
17991;SDS011;9121;50.926;5.340;2023-04-29T10:51:29;25.45;;;14.60;;
17991;SDS011;9121;50.926;5.340;2023-04-29T10:53:59;27.52;;;15.23;;
17991;SDS011;9121;50.926;5.340;2023-04-29T10:56:34;23.65;;;14.27;;
17991;SDS011;9121;50.926;5.340;2023-04-29T10:59:02;25.58;;;15.18;;
17991;SDS011;9121;50.926;5.340;2023-04-29T11:01:39;22.52;;;13.95;;
17991;SDS011;9121;50.926;5.340;2023-04-29T11:04:07;26.48;;;15.55;;
17991;SDS011;9121;50.926;5.340;2023-04-29T11:06:43;27.25;;;14.68;;
17991;SDS011;9121;50.926;5.340;2023-04-29T11:09:14;28.55;;;14.95;;
17991;SDS011;9121;50.926;5.340;2023-04-29T11:11:46;26.98;;;14.73;;
17991;SDS011;9121;50.926;5.340;2023-04-29T11:14:25;23.02;;;14.32;;
17991;SDS011;9121;50.926;5.340;2023-04-29T11:16:55;25.70;;;13.93;;
17991;SDS011;9121;50.926;5.340;2023-04-29T11:19:24;25.67;;;15.10;;
17991;SDS011;9121;50.926;5.340;2023-04-29T11:22:09;24.52;;;14.35;;
17991;SDS011;9121;50.926;5.340;2023-04-29T11:24:49;29.08;;;14.80;;
17991;SDS011;9121;50.926;5.340;2023-04-29T11:27:18;23.38;;;14.82;;
17991;SDS011;9121;50.926;5.340;2023-04-29T11:29:49;24.83;;;14.70;;
17991;SDS011;9121;50.926;5.340;2023-04-29T11:32:19;26.92;;;15.40;;
17991;SDS011;9121;50.926;5.340;2023-04-29T11:34:47;22.55;;;13.30;;
17991;SDS011;9121;50.926;5.340;2023-04-29T11:37:18;27.00;;;14.45;;
17991;SDS011;9121;50.926;5.340;2023-04-29T11:39:48;25.42;;;13.98;;
17991;SDS011;9121;50.926;5.340;2023-04-29T11:42:19;23.13;;;13.52;;
17991;SDS011;9121;50.926;5.340;2023-04-29T11:44:46;23.02;;;13.15;;
17991;SDS011;9121;50.926;5.340;2023-04-29T11:47:18;25.55;;;15.07;;
17991;SDS011;9121;50.926;5.340;2023-04-29T11:49:46;26.23;;;14.57;;
17991;SDS011;9121;50.926;5.340;2023-04-29T11:52:13;27.65;;;16.00;;
17991;SDS011;9121;50.926;5.340;2023-04-29T11:54:41;25.13;;;13.98;;
17991;SDS011;9121;50.926;5.340;2023-04-29T11:57:10;25.58;;;14.85;;
17991;SDS011;9121;50.926;5.340;2023-04-29T11:59:37;21.75;;;13.80;;
17991;SDS011;9121;50.926;5.340;2023-04-29T12:02:10;28.67;;;14.30;;
17991;SDS011;9121;50.926;5.340;2023-04-29T12:04:43;22.27;;;13.40;;
17991;SDS011;9121;50.926;5.340;2023-04-29T12:07:10;23.05;;;13.85;;
17991;SDS011;9121;50.926;5.340;2023-04-29T12:09:41;22.88;;;13.18;;
17991;SDS011;9121;50.926;5.340;2023-04-29T12:12:08;19.88;;;11.48;;
17991;SDS011;9121;50.926;5.340;2023-04-29T12:14:37;22.33;;;12.60;;
17991;SDS011;9121;50.926;5.340;2023-04-29T12:17:05;20.38;;;12.60;;
17991;SDS011;9121;50.926;5.340;2023-04-29T12:19:33;21.75;;;12.50;;
17991;SDS011;9121;50.926;5.340;2023-04-29T12:22:01;20.20;;;13.00;;
17991;SDS011;9121;50.926;5.340;2023-04-29T12:24:31;21.48;;;12.35;;
17991;SDS011;9121;50.926;5.340;2023-04-29T12:26:59;19.98;;;12.40;;
17991;SDS011;9121;50.926;5.340;2023-04-29T12:29:28;24.90;;;12.65;;
17991;SDS011;9121;50.926;5.340;2023-04-29T12:31:55;20.13;;;12.55;;
17991;SDS011;9121;50.926;5.340;2023-04-29T12:34:25;24.48;;;13.02;;
17991;SDS011;9121;50.926;5.340;2023-04-29T12:36:54;27.33;;;13.10;;
17991;SDS011;9121;50.926;5.340;2023-04-29T12:39:22;23.52;;;14.00;;
17991;SDS011;9121;50.926;5.340;2023-04-29T12:41:53;24.25;;;12.93;;
17991;SDS011;9121;50.926;5.340;2023-04-29T12:44:21;18.58;;;12.80;;
17991;SDS011;9121;50.926;5.340;2023-04-29T12:46:50;23.13;;;12.73;;
17991;SDS011;9121;50.926;5.340;2023-04-29T12:49:18;23.80;;;12.65;;
17991;SDS011;9121;50.926;5.340;2023-04-29T12:51:45;26.17;;;13.35;;
17991;SDS011;9121;50.926;5.340;2023-04-29T12:54:12;20.77;;;13.00;;
17991;SDS011;9121;50.926;5.340;2023-04-29T12:56:39;22.23;;;12.43;;
17991;SDS011;9121;50.926;5.340;2023-04-29T12:59:07;25.45;;;13.10;;
17991;SDS011;9121;50.926;5.340;2023-04-29T13:01:35;18.17;;;11.93;;
17991;SDS011;9121;50.926;5.340;2023-04-29T13:04:04;29.08;;;12.65;;
17991;SDS011;9121;50.926;5.340;2023-04-29T13:06:33;21.63;;;12.77;;
17991;SDS011;9121;50.926;5.340;2023-04-29T13:09:03;20.90;;;12.18;;
17991;SDS011;9121;50.926;5.340;2023-04-29T13:11:30;18.90;;;11.63;;
17991;SDS011;9121;50.926;5.340;2023-04-29T13:13:57;19.85;;;11.35;;
17991;SDS011;9121;50.926;5.340;2023-04-29T13:16:24;18.00;;;10.82;;
17991;SDS011;9121;50.926;5.340;2023-04-29T13:18:52;18.75;;;12.00;;
17991;SDS011;9121;50.926;5.340;2023-04-29T13:21:20;18.27;;;11.38;;
17991;SDS011;9121;50.926;5.340;2023-04-29T13:23:47;16.42;;;10.70;;
17991;SDS011;9121;50.926;5.340;2023-04-29T13:26:14;20.77;;;12.05;;
17991;SDS011;9121;50.926;5.340;2023-04-29T13:28:42;20.88;;;11.95;;
17991;SDS011;9121;50.926;5.340;2023-04-29T13:31:09;21.10;;;11.45;;
17991;SDS011;9121;50.926;5.340;2023-04-29T13:33:36;18.55;;;10.45;;
17991;SDS011;9121;50.926;5.340;2023-04-29T13:36:03;19.45;;;11.80;;
17991;SDS011;9121;50.926;5.340;2023-04-29T13:38:32;20.80;;;11.23;;
17991;SDS011;9121;50.926;5.340;2023-04-29T13:40:58;18.42;;;11.60;;
17991;SDS011;9121;50.926;5.340;2023-04-29T13:43:25;18.17;;;11.27;;
17991;SDS011;9121;50.926;5.340;2023-04-29T13:45:52;23.23;;;11.43;;
17991;SDS011;9121;50.926;5.340;2023-04-29T13:48:19;16.40;;;10.20;;
17991;SDS011;9121;50.926;5.340;2023-04-29T13:50:47;15.82;;;9.77;;
17991;SDS011;9121;50.926;5.340;2023-04-29T13:53:14;19.42;;;9.90;;
17991;SDS011;9121;50.926;5.340;2023-04-29T13:55:43;14.60;;;10.23;;
17991;SDS011;9121;50.926;5.340;2023-04-29T13:58:10;19.75;;;11.02;;
17991;SDS011;9121;50.926;5.340;2023-04-29T14:00:37;21.23;;;11.77;;
17991;SDS011;9121;50.926;5.340;2023-04-29T14:03:04;19.75;;;11.57;;
17991;SDS011;9121;50.926;5.340;2023-04-29T14:05:32;20.75;;;10.98;;
17991;SDS011;9121;50.926;5.340;2023-04-29T14:07:59;22.90;;;11.27;;
17991;SDS011;9121;50.926;5.340;2023-04-29T14:10:26;18.48;;;11.65;;
17991;SDS011;9121;50.926;5.340;2023-04-29T14:12:54;17.27;;;9.82;;
17991;SDS011;9121;50.926;5.340;2023-04-29T14:15:21;19.60;;;9.95;;
17991;SDS011;9121;50.926;5.340;2023-04-29T14:17:48;19.02;;;10.65;;
17991;SDS011;9121;50.926;5.340;2023-04-29T14:20:15;15.70;;;10.45;;
17991;SDS011;9121;50.926;5.340;2023-04-29T14:22:42;20.67;;;10.60;;
17991;SDS011;9121;50.926;5.340;2023-04-29T14:25:09;16.63;;;10.70;;
17991;SDS011;9121;50.926;5.340;2023-04-29T14:27:36;20.65;;;10.55;;
17991;SDS011;9121;50.926;5.340;2023-04-29T14:30:06;18.55;;;11.32;;
17991;SDS011;9121;50.926;5.340;2023-04-29T14:32:33;19.27;;;10.23;;
17991;SDS011;9121;50.926;5.340;2023-04-29T14:35:00;17.20;;;11.20;;
17991;SDS011;9121;50.926;5.340;2023-04-29T14:37:27;20.73;;;11.68;;
17991;SDS011;9121;50.926;5.340;2023-04-29T14:39:54;19.88;;;11.10;;
17991;SDS011;9121;50.926;5.340;2023-04-29T14:42:21;15.00;;;8.95;;
17991;SDS011;9121;50.926;5.340;2023-04-29T14:44:48;18.40;;;10.15;;
17991;SDS011;9121;50.926;5.340;2023-04-29T14:47:17;19.27;;;9.82;;